D/T METAR WX W/DIR W/SPE G/SPE TEMP DEWP
16/01/19 03:20 EGPD 160320Z 24004KT 9999 -RA FEW028 SCT048 07/06 Q0993 -RA WSW (240°) 4.6mph 7°C 6°C
16/01/19 02:20 EGPD 160220Z AUTO 28011KT 240V320 3500 RA FEW015/// SCT023/// BKN029/// //////TCU 08/06 Q0994 TEMPO BKN010 RA W (280°) 12.7mph 8°C 6°C
16/01/19 01:50 EGPD 160150Z AUTO 21017KT 9999 BKN036/// //////TCU 09/06 Q0994 SSW (210°) 19.6mph 9°C 6°C
16/01/19 01:20 EGPD 160120Z AUTO 21019KT 9999 -RA FEW040 SCT047 09/06 Q0994 NOSIG -RA SSW (210°) 21.9mph 9°C 6°C
16/01/19 00:50 EGPD 160050Z AUTO 21018KT 9999 NCD 09/06 Q0994 NOSIG SSW (210°) 20.7mph 9°C 6°C
16/01/19 00:20 EGPD 160020Z AUTO 21016KT 9999 NCD 08/06 Q0994 NOSIG SSW (210°) 18.4mph 8°C 6°C
15/01/19 23:20 EGPD 152320Z AUTO 21013KT 9999 NCD 08/05 Q0995 SSW (210°) 15.0mph 8°C 5°C
15/01/19 22:50 EGPD 152250Z AUTO 21014KT 9999 NCD 08/05 Q0996 NOSIG SSW (210°) 16.1mph 8°C 5°C
15/01/19 22:20 EGPD 152220Z AUTO 22013KT 9999 NCD 09/05 Q0996 NOSIG SW (220°) 15.0mph 9°C 5°C
15/01/19 21:50 EGPD 152150Z AUTO 22016KT 9999 NCD 09/05 Q0996 NOSIG SW (220°) 18.4mph 9°C 5°C
15/01/19 21:20 EGPD 152120Z AUTO 23012KT 9999 NCD 09/04 Q0997 SW (230°) 13.8mph 9°C 4°C
15/01/19 20:50 EGPD 152050Z AUTO 22011KT 9999 NCD 08/04 Q0997 NOSIG SW (220°) 12.7mph 8°C 4°C
15/01/19 20:20 EGPD 152020Z AUTO 23008KT 9999 NCD 08/04 Q0998 NOSIG SW (230°) 9.2mph 8°C 4°C
15/01/19 19:50 EGPD 151950Z AUTO 21008KT 9999 NCD 08/04 Q0998 SSW (210°) 9.2mph 8°C 4°C
15/01/19 19:20 EGPD 151920Z AUTO 22006KT 9999 FEW042 08/04 Q0999 SW (220°) 6.9mph 8°C 4°C
15/01/19 18:50 EGPD 151850Z AUTO 19008KT 9999 BKN040 08/04 Q0999 NOSIG S (190°) 9.2mph 8°C 4°C
15/01/19 18:20 EGPD 151820Z AUTO 23007KT 9999 NCD 09/04 Q1000 NOSIG SW (230°) 8.1mph 9°C 4°C
15/01/19 17:50 EGPD 151750Z 25008KT 210V280 CAVOK 09/05 Q1000 WSW (250°) 9.2mph 9°C 5°C
15/01/19 17:20 EGPD 151720Z 25010KT 220V280 9999 FEW047 10/05 Q1000 NOSIG WSW (250°) 11.5mph 10°C 5°C
15/01/19 16:50 EGPD 151650Z AUTO 24007KT 9999 BKN047 10/06 Q1001 NOSIG WSW (240°) 8.1mph 10°C 6°C
15/01/19 16:20 EGPD 151620Z AUTO 25009KT 9999 BKN049 10/06 Q1001 NOSIG WSW (250°) 10.4mph 10°C 6°C
15/01/19 15:50 EGPD 151550Z 24006KT 9999 4000E VCFG FEW043 10/07 Q1001 NOSIG VCFG WSW (240°) 6.9mph 10°C 7°C
15/01/19 15:20 EGPD 151520Z AUTO 22007KT 9999 BKN048 10/07 Q1002 SW (220°) 8.1mph 10°C 7°C
15/01/19 14:50 EGPD 151450Z 23007KT 9999 3000E VCFG SCT041 10/07 Q1002 NOSIG VCFG SW (230°) 8.1mph 10°C 7°C
15/01/19 14:20 EGPD 151420Z 24004KT 200V280 9999 3500E VCFG BKN039 10/07 Q1002 NOSIG VCFG WSW (240°) 4.6mph 10°C 7°C
15/01/19 13:50 EGPD 151350Z 24005KT 190V270 9999 VCFG BKN039 09/08 Q1002 NOSIG VCFG WSW (240°) 5.8mph 9°C 8°C
15/01/19 13:20 EGPD 151320Z VRB01KT 9999 VCFG BKN038 09/08 Q1003 NOSIG VCFG N (0°) 1.2mph 9°C 8°C
15/01/19 12:50 EGPD 151250Z VRB01KT 9999 4500N BCFG FEW003 BKN039 09/08 Q1003 BCFG N (0°) 1.2mph 9°C 8°C
15/01/19 12:20 EGPD 151220Z VRB02KT 9000 FEW007 SCT032 BKN041 09/08 Q1004 N (0°) 2.3mph 9°C 8°C
15/01/19 11:50 EGPD 151150Z VRB03KT 9999 4500NE -RA FEW007 SCT011 BKN025 09/08 Q1004 -RA N (0°) 3.5mph 9°C 8°C
15/01/19 11:20 EGPD 151120Z 16004KT 4500 -RADZ FEW007 BKN017 BKN027 08/08 Q1005 TEMPO 5000 BKN014 -RA -DZ SSE (160°) 4.6mph 8°C 8°C
15/01/19 10:50 EGPD 151050Z 16004KT 140V200 3000 -RADZ SCT007 BKN015 BKN023 08/08 Q1005 REDZ TEMPO 5000 BKN009 -RA -DZ SSE (160°) 4.6mph 8°C 8°C
15/01/19 10:20 EGPD 151020Z 17006KT 140V200 2500 DZ SCT004 BKN009 BKN023 08/07 Q1005 RERA TEMPO 5000 -RADZ BKN010 DZ S (170°) 6.9mph 8°C 7°C
15/01/19 09:50 EGPD 150950Z 19004KT 2500 RADZ SCT004 BKN010 BKN015 08/07 Q1006 RA DZ S (190°) 4.6mph 8°C 7°C
15/01/19 09:20 EGPD 150920Z 18005KT 3300 -RADZ SCT005 BKN012 BKN021 08/07 Q1006 TEMPO 5000 -RA -DZ S (180°) 5.8mph 8°C 7°C
15/01/19 08:50 EGPD 150850Z VRB01KT 6000 -RA SCT024 BKN030 OVC042 08/07 Q1006 -RA N (0°) 1.2mph 8°C 7°C
15/01/19 08:20 EGPD 150820Z VRB01KT 9000 VCSH BKN026 08/07 Q1006 VCSH N (0°) 1.2mph 8°C 7°C
15/01/19 07:50 EGPD 150750Z 35005KT 9999 BKN026 09/07 Q1005 N (350°) 5.8mph 9°C 7°C
15/01/19 07:20 EGPD 150720Z 34006KT 9999 VCSH BKN024 11/07 Q1005 VCSH NNW (340°) 6.9mph 11°C 7°C
15/01/19 06:50 EGPD 150650Z 28005KT 230V300 9999 SCT032 10/06 Q1005 W (280°) 5.8mph 10°C 6°C
15/01/19 06:20 EGPD 150620Z 24005KT 9999 BKN038 09/06 Q1005 NOSIG WSW (240°) 5.8mph 9°C 6°C
15/01/19 05:50 EGPD 150550Z 23006KT 9999 SCT041 09/06 Q1005 NOSIG SW (230°) 6.9mph 9°C 6°C
15/01/19 05:20 EGPD 150520Z AUTO 23007KT 9999 BKN030 OVC038 10/06 Q1005 SW (230°) 8.1mph 10°C 6°C
15/01/19 04:20 EGPD 150420Z AUTO 23009KT 9999 SCT034 BKN042 09/06 Q1005 SW (230°) 10.4mph 9°C 6°C
15/01/19 03:50 EGPD 150350Z AUTO 23011KT 9999 SCT043 09/05 Q1005 SW (230°) 12.7mph 9°C 5°C
15/01/19 03:20 EGPD 150320Z AUTO 24012KT 9999 NCD 09/05 Q1006 WSW (240°) 13.8mph 9°C 5°C
15/01/19 02:50 EGPD 150250Z AUTO 25013KT 9999 NCD 09/05 Q1006 WSW (250°) 15.0mph 9°C 5°C
15/01/19 02:20 EGPD 150220Z AUTO 24013G25KT 9999 NCD 09/04 Q1006 WSW (240°) 15.0mph 28.8mph 9°C 4°C
15/01/19 01:50 EGPD 150150Z AUTO 19006KT 160V230 9999 NCD 07/03 Q1007 S (190°) 6.9mph 7°C 3°C
15/01/19 01:20 EGPD 150120Z AUTO 20007KT 9999 NCD 07/04 Q1007 SSW (200°) 8.1mph 7°C 4°C
15/01/19 00:50 EGPD 150050Z AUTO 19005KT 9999 NCD 05/03 Q1008 S (190°) 5.8mph 5°C 3°C
15/01/19 00:20 EGPD 150020Z AUTO 21006KT 9999 NCD 06/03 Q1008 SSW (210°) 6.9mph 6°C 3°C
14/01/19 23:50 EGPD 142350Z AUTO 22007KT 9999 NCD 07/03 Q1008 SW (220°) 8.1mph 7°C 3°C
14/01/19 23:20 EGPD 142320Z AUTO 22008KT 9999 NCD 06/03 Q1009 NOSIG SW (220°) 9.2mph 6°C 3°C
14/01/19 22:50 EGPD 142250Z AUTO 21007KT 9999 NCD 05/02 Q1009 NOSIG SSW (210°) 8.1mph 5°C 2°C
14/01/19 22:20 EGPD 142220Z AUTO 22008KT 9999 FEW049 05/02 Q1010 SW (220°) 9.2mph 5°C 2°C
14/01/19 21:50 EGPD 142150Z AUTO 22006KT 9999 NCD 04/01 Q1010 NOSIG SW (220°) 6.9mph 4°C 1°C
14/01/19 21:20 EGPD 142120Z AUTO 22007KT 9999 NCD 05/01 Q1011 NOSIG SW (220°) 8.1mph 5°C 1°C
14/01/19 20:50 EGPD 142050Z AUTO VRB03KT 9999 NCD 04/01 Q1011 NOSIG N (0°) 3.5mph 4°C 1°C
14/01/19 20:20 EGPD 142020Z AUTO 15003KT 9999 NCD 04/01 Q1012 NOSIG SSE (150°) 3.5mph 4°C 1°C
14/01/19 19:50 EGPD 141950Z AUTO VRB03KT 9999 NCD 04/01 Q1012 N (0°) 3.5mph 4°C 1°C
14/01/19 19:20 EGPD 141920Z AUTO 21006KT 9999 NCD 05/01 Q1012 SSW (210°) 6.9mph 5°C 1°C
14/01/19 18:50 EGPD 141850Z AUTO 22005KT 180V240 9999 NCD 05/01 Q1013 NOSIG SW (220°) 5.8mph 5°C 1°C
14/01/19 18:20 EGPD 141820Z AUTO 24006KT 9999 NCD 05/01 Q1013 NOSIG WSW (240°) 6.9mph 5°C 1°C
14/01/19 17:50 EGPD 141750Z AUTO 24008KT 9999 FEW046 06/01 Q1014 NOSIG WSW (240°) 9.2mph 6°C 1°C
14/01/19 17:20 EGPD 141720Z AUTO 24007KT 9999 NCD 06/01 Q1014 WSW (240°) 8.1mph 6°C 1°C
14/01/19 16:50 EGPD 141650Z AUTO 24006KT 9999 NCD 05/01 Q1014 NOSIG WSW (240°) 6.9mph 5°C 1°C
14/01/19 15:50 EGPD 141550Z AUTO 24007KT 9999 NCD 05/00 Q1014 NOSIG WSW (240°) 8.1mph 5°C 0°C
14/01/19 15:20 EGPD 141520Z AUTO 25010KT 9999 NCD 05/M00 Q1014 NOSIG WSW (250°) 11.5mph 5°C 0°C
14/01/19 14:20 EGPD 141420Z AUTO 21006KT 9999 NCD 04/M01 Q1014 NOSIG SSW (210°) 6.9mph 4°C -1°C
14/01/19 13:50 EGPD 141350Z AUTO 22010KT 9999 NCD 05/M01 Q1015 SW (220°) 11.5mph 5°C -1°C
14/01/19 13:20 EGPD 141320Z AUTO 22009KT 9999 NCD 04/M01 Q1015 NOSIG SW (220°) 10.4mph 4°C -1°C
14/01/19 12:50 EGPD 141250Z AUTO 23010KT 9999 NCD 04/M01 Q1016 NOSIG SW (230°) 11.5mph 4°C -1°C
14/01/19 12:20 EGPD 141220Z AUTO 23009KT 9999 NCD 03/M01 Q1016 NOSIG SW (230°) 10.4mph 3°C -1°C
14/01/19 11:50 EGPD 141150Z AUTO 21007KT 9999 NCD 03/M01 Q1016 NOSIG SSW (210°) 8.1mph 3°C -1°C
14/01/19 11:20 EGPD 141120Z AUTO 21007KT 180V240 9999 NCD 02/M01 Q1017 SSW (210°) 8.1mph 2°C -1°C
14/01/19 10:20 EGPD 141020Z AUTO 25007KT 220V290 9999 NCD 01/M01 Q1017 NOSIG WSW (250°) 8.1mph 1°C -1°C
14/01/19 09:50 EGPD 140950Z AUTO 26011KT 9999 NCD 01/M01 Q1017 NOSIG W (260°) 12.7mph 1°C -1°C
14/01/19 08:50 EGPD 140850Z AUTO 27008KT 210V280 9999 NCD 01/M02 Q1017 NOSIG W (270°) 9.2mph 1°C -2°C
14/01/19 08:20 EGPD 140820Z AUTO 28009KT 260V320 9999 NCD 01/M01 Q1017 NOSIG W (280°) 10.4mph 1°C -1°C
14/01/19 07:50 EGPD 140750Z AUTO 29010KT 9999 NCD 01/M01 Q1016 WNW (290°) 11.5mph 1°C -1°C
14/01/19 07:20 EGPD 140720Z AUTO 29010KT 9999 NCD 02/M00 Q1016 NOSIG WNW (290°) 11.5mph 2°C 0°C
14/01/19 06:20 EGPD 140620Z AUTO 30009KT 9999 SCT019 BKN033 02/M00 Q1016 WNW (300°) 10.4mph 2°C 0°C
14/01/19 05:50 EGPD 140550Z AUTO 30011KT 9999 FEW024 02/M00 Q1016 NOSIG WNW (300°) 12.7mph 2°C 0°C
14/01/19 05:20 EGPD 140520Z AUTO 29011KT 9999 NCD 02/M00 Q1015 NOSIG WNW (290°) 12.7mph 2°C 0°C
14/01/19 04:20 EGPD 140420Z AUTO 30011KT 9999 FEW022 SCT036 02/M01 Q1015 NOSIG WNW (300°) 12.7mph 2°C -1°C
14/01/19 03:50 EGPD 140350Z AUTO 31013KT 9999 SCT026 02/M01 Q1014 NOSIG NW (310°) 15.0mph 2°C -1°C
14/01/19 03:20 EGPD 140320Z AUTO 30013KT 9999 FEW037 02/00 Q1014 NOSIG WNW (300°) 15.0mph 2°C 0°C
14/01/19 02:50 EGPD 140250Z AUTO 30011KT 9999 OVC045 02/01 Q1014 TEMPO SHRASN WNW (300°) 12.7mph 2°C 1°C
14/01/19 02:20 EGPD 140220Z AUTO 31011KT 9999 -RA FEW020 SCT041 02/01 Q1014 TEMPO SHRASN -RA NW (310°) 12.7mph 2°C 1°C
14/01/19 01:50 EGPD 140150Z AUTO 31009KT 9999 FEW024 SCT032 02/01 Q1013 TEMPO SHRA NW (310°) 10.4mph 2°C 1°C
14/01/19 01:20 EGPD 140120Z AUTO 31010KT 9999 BKN026 OVC036 03/01 Q1013 NOSIG NW (310°) 11.5mph 3°C 1°C
14/01/19 00:50 EGPD 140050Z AUTO 33007KT 9999 -RA FEW017 BKN023 BKN029 02/01 Q1012 NOSIG -RA NNW (330°) 8.1mph 2°C 1°C
14/01/19 00:20 EGPD 140020Z 32009KT 9999 BKN027 02/01 Q1012 NOSIG NW (320°) 10.4mph 2°C 1°C
13/01/19 23:50 EGPD 132350Z 33008KT 9999 FEW016 BKN037 02/01 Q1012 NOSIG NNW (330°) 9.2mph 2°C 1°C
13/01/19 23:20 EGPD 132320Z AUTO 34008KT 8000 -RA BKN009 BKN016 BKN024 03/01 Q1011 NOSIG -RA NNW (340°) 9.2mph 3°C 1°C
13/01/19 22:50 EGPD 132250Z 36009KT 5000 -SHRA SCT008 BKN028 03/01 Q1010 TEMPO 4000 -SHRASN BKN008 -SHRA N (360°) 10.4mph 3°C 1°C
13/01/19 22:20 EGPD 132220Z 36007KT 9999 -SHRA SCT008 BKN018 04/02 Q1010 TEMPO BKN008 -SHRA N (360°) 8.1mph 4°C 2°C
13/01/19 21:50 EGPD 132150Z 01009KT 340V050 9999 -SHRA SCT010 BKN022 04/02 Q1008 TEMPO SHRA BKN010 -SHRA N (10°) 10.4mph 4°C 2°C
13/01/19 21:20 EGPD 132120Z 01007KT 9999 -SHRA SCT010 BKN022 04/03 Q1007 TEMPO SHRA BKN010 -SHRA N (10°) 8.1mph 4°C 3°C
13/01/19 20:50 EGPD 132050Z 36009KT 9999 SCT012 BKN023 04/03 Q1007 RESHRA N (360°) 10.4mph 4°C 3°C
13/01/19 19:50 EGPD 131950Z AUTO 30014KT 9999 BKN021 BKN040 06/03 Q1004 TEMPO SHRA WNW (300°) 16.1mph 6°C 3°C
13/01/19 19:20 EGPD 131920Z AUTO 30017KT 9999 SCT021 BKN025 BKN034 06/02 Q1004 TEMPO SHRA WNW (300°) 19.6mph 6°C 2°C
13/01/19 18:50 EGPD 131850Z AUTO 30018KT 9999 SCT022 BKN035 BKN043 06/02 Q1003 TEMPO SHRA WNW (300°) 20.7mph 6°C 2°C
13/01/19 18:20 EGPD 131820Z AUTO 29018KT 9999 FEW025 06/02 Q1002 NOSIG WNW (290°) 20.7mph 6°C 2°C
13/01/19 17:50 EGPD 131750Z 30019KT 9999 FEW024 06/02 Q1002 TEMPO SHRA WNW (300°) 21.9mph 6°C 2°C
13/01/19 17:20 EGPD 131720Z 29018KT 9999 SCT028 06/02 Q1002 NOSIG WNW (290°) 20.7mph 6°C 2°C
13/01/19 16:50 EGPD 131650Z 30019KT 9999 VCSH SCT024 BKN038 06/02 Q1002 NOSIG VCSH WNW (300°) 21.9mph 6°C 2°C
13/01/19 16:20 EGPD 131620Z 30018KT 9999 VCSH SCT026 BKN034 07/02 Q1002 TEMPO SHRA VCSH WNW (300°) 20.7mph 7°C 2°C
13/01/19 15:50 EGPD 131550Z 29019KT 9999 VCSH FEW037 SCT047 07/02 Q1001 NOSIG VCSH WNW (290°) 21.9mph 7°C 2°C
13/01/19 15:20 EGPD 131520Z 30017KT 9999 FEW037 SCT044 07/02 Q1001 WNW (300°) 19.6mph 7°C 2°C
13/01/19 14:50 EGPD 131450Z 30018KT 9999 VCSH FEW029 SCT037 07/03 Q1001 TEMPO SHRA VCSH WNW (300°) 20.7mph 7°C 3°C
13/01/19 14:20 EGPD 131420Z 29017KT 9999 FEW029 SCT037 07/04 Q1001 WNW (290°) 19.6mph 7°C 4°C
13/01/19 13:50 EGPD 131350Z 28017G28KT 9999 VCSH FEW023 SCT031 07/03 Q1001 VCSH W (280°) 19.6mph 32.2mph 7°C 3°C
13/01/19 13:20 EGPD 131320Z AUTO 30014KT 9999 -RA BKN023 07/04 Q1001 -RA WNW (300°) 16.1mph 7°C 4°C
13/01/19 12:50 EGPD 131250Z AUTO 29015KT 260V330 9999 SCT025 08/03 Q1001 WNW (290°) 17.3mph 8°C 3°C
13/01/19 12:20 EGPD 131220Z 29017G28KT 9999 -SHRA SCT025 BKN044 08/03 Q1001 TEMPO SHRA -SHRA WNW (290°) 19.6mph 32.2mph 8°C 3°C
13/01/19 11:50 EGPD 131150Z AUTO 29017G27KT 9999 SCT025 BKN035 BKN044 07/04 Q1001 WNW (290°) 19.6mph 31.1mph 7°C 4°C
13/01/19 10:50 EGPD 131050Z AUTO 29017KT 9999 FEW030/// SCT042/// //////TCU 08/04 Q1001 TEMPO SHRA WNW (290°) 19.6mph 8°C 4°C
13/01/19 10:20 EGPD 131020Z AUTO 29021G34KT 9999 SCT027/// BKN035/// BKN048/// //////TCU 08/04 Q1001 TEMPO SHRA WNW (290°) 24.2mph 39.1mph 8°C 4°C
13/01/19 09:50 EGPD 130950Z 29019G31KT 9999 VCSH FEW048 08/03 Q1000 TEMPO SHRA VCSH WNW (290°) 21.9mph 35.7mph 8°C 3°C
13/01/19 09:20 EGPD 130920Z 29020G31KT 9999 FEW030 08/02 Q1000 WNW (290°) 23.0mph 35.7mph 8°C 2°C
13/01/19 08:50 EGPD 130850Z AUTO 28021G31KT 9999 //////TCU 09/03 Q1000 NOSIG W (280°) 24.2mph 35.7mph 9°C 3°C
13/01/19 08:20 EGPD 130820Z AUTO 29019G30KT 9999 //////TCU 09/03 Q1000 TEMPO SHRA WNW (290°) 21.9mph 34.5mph 9°C 3°C
13/01/19 07:50 EGPD 130750Z AUTO 29023G35KT 9999 NCD 10/03 Q1000 TEMPO SHRA WNW (290°) 26.5mph 40.3mph 10°C 3°C
13/01/19 07:20 EGPD 130720Z AUTO 30023G37KT 9999 FEW036 11/04 Q0999 WNW (300°) 26.5mph 42.6mph 11°C 4°C
13/01/19 06:50 EGPD 130650Z AUTO 29018KT 9999 NCD 11/05 Q0999 NOSIG WNW (290°) 20.7mph 11°C 5°C
13/01/19 06:20 EGPD 130620Z AUTO 29020G32KT 9999 NCD 11/05 Q1000 NOSIG WNW (290°) 23.0mph 36.8mph 11°C 5°C
13/01/19 05:20 EGPD 130520Z AUTO 29015G26KT 9999 NCD 11/06 Q0999 NOSIG WNW (290°) 17.3mph 29.9mph 11°C 6°C
13/01/19 04:50 EGPD 130450Z AUTO 29019KT 9999 NCD 11/07 Q1000 NOSIG WNW (290°) 21.9mph 11°C 7°C
13/01/19 03:50 EGPD 130350Z AUTO 30017G31KT 9999 NCD 11/07 Q1001 NOSIG WNW (300°) 19.6mph 35.7mph 11°C 7°C
13/01/19 03:20 EGPD 130320Z AUTO 29022G32KT 9999 NCD 11/07 Q1001 NOSIG WNW (290°) 25.3mph 36.8mph 11°C 7°C
13/01/19 02:50 EGPD 130250Z AUTO 29021G33KT 9999 SCT038 12/07 Q1002 WNW (290°) 24.2mph 38.0mph 12°C 7°C
13/01/19 02:20 EGPD 130220Z AUTO 29021G34KT 9999 FEW039 12/07 Q1002 NOSIG WNW (290°) 24.2mph 39.1mph 12°C 7°C
13/01/19 01:50 EGPD 130150Z AUTO 29021KT 9999 NCD 12/07 Q1002 TEMPO RA WNW (290°) 24.2mph 12°C 7°C
13/01/19 01:20 EGPD 130120Z AUTO 30022KT 9999 NCD 12/07 Q1002 TEMPO RA WNW (300°) 25.3mph 12°C 7°C
13/01/19 00:50 EGPD 130050Z AUTO 30023KT 9999 NCD 12/07 Q1003 TEMPO RA WNW (300°) 26.5mph 12°C 7°C
12/01/19 23:50 EGPD 122350Z AUTO 29016KT 9999 NCD 12/07 Q1003 NOSIG WNW (290°) 18.4mph 12°C 7°C
12/01/19 23:20 EGPD 122320Z AUTO 27017KT 9999 NCD 12/07 Q1003 NOSIG W (270°) 19.6mph 12°C 7°C
12/01/19 22:50 EGPD 122250Z AUTO 27014G24KT 9999 FEW031 12/07 Q1004 TEMPO RA W (270°) 16.1mph 27.6mph 12°C 7°C
12/01/19 22:20 EGPD 122220Z AUTO 27012KT 9999 BKN029 12/07 Q1005 TEMPO RA W (270°) 13.8mph 12°C 7°C
12/01/19 21:50 EGPD 122150Z AUTO 27010KT 240V310 9999 FEW033 11/07 Q1005 W (270°) 11.5mph 11°C 7°C
12/01/19 21:20 EGPD 122120Z AUTO 28009KT 9999 SCT028 11/07 Q1005 W (280°) 10.4mph 11°C 7°C
12/01/19 20:50 EGPD 122050Z AUTO 28011KT 9999 BKN026 11/07 Q1006 NOSIG W (280°) 12.7mph 11°C 7°C